aviador You're here:

KSUN Decoded Metar

HAILEY/FRIEDMAN in ID, USA
Report Time2018-06-17 20:49:00
UTC Time2018-06-17 21:42:30
Flight Rules vfr VFR
Wind130° at 09 Gusting to 15 kt
W.Decomp.*RWY 13: 8.7 kt HW 2.5 kt LCW
W.Rank130° ranks 6
Current wind is above 130° avg. (7.5)
Visibility9999 m
Phenomena:N/A
Clouds:Scattered 090 Hf
Broken 120 Hf
Expected CloudBase > 4,400 ft AGL from Temp-Dew spread
Ceiling12,000 ft
Temp20°C (ISA +16)
Dew Point09°C (49% RH)
AAT16.5°C
QNH1009 hPa
Density Alt7,408 ft
Elevation5,315 ft
Report Wrong Elevation
Raw Report
KSUN 172049Z 13009G15KT 10SM SCT090 BKN120 20/09 A2980=

Extra information for KSUN:More info

Metar Taf Metar & Taf Last 4 Metars F.Rules Stats Wind Profile Meteogram Temp Stats Airport Information Weather charts Add Link Nearby VenuesMetar ALERT Operation Metar Decoded Social comments

AIRNAV info for KSUN